Pauma Valley, CA (92061)

9:37 PM PST en Noviembre 27, 2014 (GMT -0800)
Pauma Heights | Change Station
CLOSE
Current Station
Estación meteorológica personal
Location: Valley Center, CA
Altura: 1565 ft
Estaciones meteorológicas cercanas

Alt 1565 ft 33.28 °N, 117.02 °W | Updated 2 seconds ago

Despejado
Despejado
64.9 ° F
Sensación térmica 64.9 ° F
N
0.0
Viento Variable Viento desde Norte
Gusts 1.0 mph

Hoy
Alta -- | Baja -- ° F
--% Posibilidad de precipitaciones
Ayer
Alta -- | Baja -- ° F
Precip. -- pul
6:30 AM 4:40 PM
Creciente, 36% visible
Presión 30.04 pul
Visibilidad 10.0 Millas
Nubes Despejado
Punto de rocío 25 ° F
Humedad 22%
Precipitaciones 0.00 pul
Espesor de la nieve No disponible.
UV 0 de una escala de 12
Polen 2.60 de una escala de 12
Calidad del aire No disponible.
Flu Activity No disponible.
METAR KRNM 280453Z AUTO 00000KT 10SM CLR 09/M02 A3007 RMK AO2 SLP173 T00941022 $

More Conditions Fewer Conditions

Presión 30.04 pul
Visibilidad 10.0 Millas
Nubes Despejado
Punto de rocío 25 ° F
Humedad 22%
Precipitaciones 0.00 pul
Espesor de la nieve No disponible.
UV 0 de una escala de 12
Polen 2.60 de una escala de 12
Calidad del aire No disponible.
Flu Activity No disponible.
METAR KRNM 280453Z AUTO 00000KT 10SM CLR 09/M02 A3007 RMK AO2 SLP173 T00941022 $

More Conditions Fewer Conditions

10-Day Weather Forecast

Almanac

Astronomía

Nov. 27, 2014 Salida Puesta
Hora real
Crepúsculo civil
Crepúsculo náutico
Crepúsculo astronómico
Luna
Horas de luz
Horas de luz
Tomorrow will be .
, % of the Moon is Illuminated

Extremos de hoy

Máximos del estado Bajos del estado

Community

WunderPhotos

Upload Photos

1,774,195 ¡fotos cargadas!

WunderBlogs® & News

Nearby

Calidad del aire

  Calidad del aire Índice AQ Contaminante
Not available.

Grosos de nieve

Estación Profundido Altura

Actividad de terremotos

Ciudad Distance Mag. Tiempo y dato
Magnitud mínima muestra es 2,5.

Temperaturas de aguas costeras

Lugar Temperatura

Estaciones meteorológicas cercanas